If you wish to contribute or participate in the discussions about articles you are invited to join SKYbrary as a registered user

 Actions

LFBA

From SKYbrary Wiki

Airport
ICAO: LFBA – IATA: AGF
Summary
Name Agen-La Garenne Airport
Region Europe
Territory France FR.gif
Location Agen, Aquitaine
Serving Agen
Elevation 62.179 m
204 ft
Type medium airport
Coordinates 44° 10' 28.9956", 0° 35' 26.0016"
Runways
Designator Length Width Surface ROPS
11/29 2165 m7,103.018 ft 30 m98.425 ft ASP /


METAR
Observation LFBA 251300Z AUTO 32010KT 270V340 7000 FEW025 07/01 Q1012 NOSIG
Station Agen
Date/Time 25 February 2018 13:00:00
Wind direction 320°
Wind speed 10 kts
Lowest cloud amount few clouds
Temperature 7°C
Dew point 1°C
Humidity 65%
QNH 1012 hPa
Weather condition n/a

Maps

Terrain

Airport Layout

Accidents & Serious Incidents at or in vicinity of LFBA

None on SKYbrary